Time;durP1;ratioP1;P1;durP2;ratioP2;P2;SDS_P1;SDS_P2;PMS_P1;PMS_P2;Temp;Humidity;BMP_temperature;BMP_pressure;BME280_temperature;BME280_humidity;BME280_pressure;Samples;Min_cycle;Max_cycle;Signal;HPM_P1;HPM_P2
2021/08/01 00:00:00;;;;;;;;;;;;;;;23.42;59.41;99582.50;2056129;28;20335;-67
2021/08/01 00:01:01;;;;;;;;;;;;;;;23.42;59.59;99574.25;2066207;28;19988;-67
2021/08/01 00:02:01;;;;;;;;;;;;;;;23.42;59.52;99574.25;2063464;28;19925;-67
2021/08/01 00:03:02;;;;;;;;;;;;;;;23.42;59.49;99578.88;2066395;28;19927;-67
2021/08/01 00:04:02;;;;;;;;;;;;;;;23.42;59.48;99579.75;2064485;28;19928;-67
2021/08/01 00:05:02;;;;;;;;;;;;;;;23.41;59.54;99572.53;2061752;28;19987;-67
2021/08/01 00:06:03;;;;;;;;;;;;;;;23.41;59.50;99575.28;2066997;28;20403;-67
2021/08/01 00:07:03;;;;;;;;;;;;;;;23.42;59.43;99571.50;2064854;28;19921;-67
2021/08/01 00:08:04;;;;;;;;;;;;;;;23.41;59.50;99574.44;2070383;28;20323;-67
2021/08/01 00:09:04;;;;;;;;;;;;;;;23.42;59.41;99573.38;2066961;28;19917;-67
2021/08/01 00:10:06;;;;;;;;;;;;;;;23.42;59.44;99573.38;2068286;28;19924;-67
2021/08/01 00:11:06;;;;;;;;;;;;;;;23.42;59.46;99571.50;2067406;28;19917;-67
2021/08/01 00:12:07;;;;;;;;;;;;;;;23.41;59.43;99564.28;2066345;28;19917;-67
2021/08/01 00:13:07;;;;;;;;;;;;;;;23.41;59.38;99564.28;2068083;28;19988;-67
2021/08/01 00:14:07;;;;;;;;;;;;;;;23.41;59.45;99560.69;2066146;28;20016;-67
2021/08/01 00:15:08;;;;;;;;;;;;;;;23.40;59.53;99562.59;2068580;28;19921;-67
2021/08/01 00:16:08;;;;;;;;;;;;;;;23.42;59.45;99565.13;2067412;28;19960;-67
2021/08/01 00:17:08;;;;;;;;;;;;;;;23.42;59.45;99559.63;2066057;28;19917;-67
2021/08/01 00:18:09;;;;;;;;;;;;;;;23.41;59.44;99552.44;2068109;28;19928;-67
2021/08/01 00:19:09;;;;;;;;;;;;;;;23.40;59.52;99562.59;2066418;28;20487;-67
2021/08/01 00:20:09;;;;;;;;;;;;;;;23.40;59.47;99562.59;2069359;28;19924;-67
2021/08/01 00:21:10;;;;;;;;;;;;;;;23.40;59.47;99562.59;2069179;28;19964;-67
2021/08/01 00:22:10;;;;;;;;;;;;;;;23.41;59.53;99571.69;2071516;28;20865;-67
2021/08/01 00:23:11;;;;;;;;;;;;;;;23.40;59.59;99561.75;2064937;28;19955;-67
2021/08/01 00:24:11;;;;;;;;;;;;;;;23.41;59.46;99560.69;2057918;28;19922;-67
2021/08/01 00:25:11;;;;;;;;;;;;;;;23.41;59.43;99564.28;2067195;28;19917;-67
2021/08/01 00:26:12;;;;;;;;;;;;;;;23.42;59.36;99565.13;2066586;28;20342;-67
2021/08/01 00:27:12;;;;;;;;;;;;;;;23.40;59.38;99561.75;2065548;28;19921;-67
2021/08/01 00:28:13;;;;;;;;;;;;;;;23.40;59.51;99562.59;2068145;28;19944;-67
2021/08/01 00:29:13;;;;;;;;;;;;;;;23.41;59.50;99558.78;2065844;28;20282;-67
2021/08/01 00:30:13;;;;;;;;;;;;;;;23.41;59.52;99558.78;2068374;28;19917;-67
2021/08/01 00:31:13;;;;;;;;;;;;;;;23.40;59.44;99559.84;2066549;28;20635;-67
2021/08/01 00:32:14;;;;;;;;;;;;;;;23.41;59.37;99553.28;2068058;28;20346;-67
2021/08/01 00:33:14;;;;;;;;;;;;;;;23.41;59.38;99561.53;2065463;28;20624;-67
2021/08/01 00:34:14;;;;;;;;;;;;;;;23.41;59.43;99557.94;2066889;28;20363;-67
2021/08/01 00:35:15;;;;;;;;;;;;;;;23.41;59.49;99556.03;2066735;28;19909;-67
2021/08/01 00:36:15;;;;;;;;;;;;;;;23.40;59.57;99557.09;2063114;28;20201;-67
2021/08/01 00:37:15;;;;;;;;;;;;;;;23.39;59.36;99560.88;2067616;28;20575;-67
2021/08/01 00:38:16;;;;;;;;;;;;;;;23.39;59.48;99555.38;2063728;28;20756;-67
2021/08/01 00:39:16;;;;;;;;;;;;;;;23.39;59.44;99558.13;2069165;28;20173;-67
2021/08/01 00:40:19;;;;;;;;;;;;;;;23.39;59.52;99560.03;2065902;28;20339;-67
2021/08/01 00:41:19;;;;;;;;;;;;;;;23.38;59.48;99556.44;2061786;28;19963;-67
2021/08/01 00:42:20;;;;;;;;;;;;;;;23.38;59.57;99559.19;2066964;28;19921;-67
2021/08/01 00:43:20;;;;;;;;;;;;;;;23.38;59.49;99559.19;2064233;28;19987;-67
2021/08/01 00:44:20;;;;;;;;;;;;;;;23.38;59.49;99553.69;2064809;28;20249;-67
2021/08/01 00:45:21;;;;;;;;;;;;;;;23.37;59.49;99551.97;2066021;28;19921;-67
2021/08/01 00:46:21;;;;;;;;;;;;;;;23.38;59.48;99556.44;2064400;28;19994;-67
2021/08/01 00:47:21;;;;;;;;;;;;;;;23.36;59.52;99555.75;2067401;28;19915;-67
2021/08/01 00:48:24;;;;;;;;;;;;;;;23.38;59.53;99564.69;2066277;28;19956;-67
2021/08/01 00:49:34;;;;;;;;;;;;;;;23.37;59.55;99554.72;2073096;28;19928;-67
2021/08/01 00:50:34;;;;;;;;;;;;;;;23.38;59.46;99558.31;2066267;28;19975;-67
2021/08/01 00:51:35;;;;;;;;;;;;;;;23.38;59.42;99553.69;2067553;28;19935;-67
2021/08/01 00:52:36;;;;;;;;;;;;;;;23.37;59.49;99551.09;2067042;28;19968;-67
2021/08/01 00:53:36;;;;;;;;;;;;;;;23.36;59.55;99561.25;2057569;28;20119;-67
2021/08/01 00:54:37;;;;;;;;;;;;;;;23.39;59.52;99549.03;2062499;28;19928;-67
2021/08/01 00:55:38;;;;;;;;;;;;;;;23.38;59.41;99553.69;2068169;28;20368;-67
2021/08/01 00:56:39;;;;;;;;;;;;;;;23.38;59.39;99548.19;2066706;28;20017;-67
2021/08/01 00:57:39;;;;;;;;;;;;;;;23.37;59.46;99551.09;2066472;28;20441;-67
2021/08/01 00:58:39;;;;;;;;;;;;;;;23.39;59.53;99555.38;2067291;28;20072;-67
2021/08/01 00:59:40;;;;;;;;;;;;;;;23.38;59.53;99550.94;2067545;28;19924;-67
2021/08/01 01:01:59;;;;;;;;;;;;;;;23.37;59.54;99551.97;2062504;28;19917;-67
2021/08/01 01:03:07;;;;;;;;;;;;;;;23.36;59.52;99542.00;2066860;28;20536;-67
2021/08/01 01:04:31;;;;;;;;;;;;;;;23.36;59.52;99544.75;2066247;28;20004;-67
2021/08/01 01:05:34;;;;;;;;;;;;;;;23.36;59.62;99547.50;2051555;28;19980;-67
2021/08/01 01:06:54;;;;;;;;;;;;;;;23.36;59.63;99549.41;2065691;28;20911;-67
2021/08/01 01:07:54;;;;;;;;;;;;;;;23.37;59.43;99540.09;2061742;28;19909;-67
2021/08/01 01:09:00;;;;;;;;;;;;;;;23.36;59.48;99542.00;2063254;28;19913;-67
2021/08/01 01:10:07;;;;;;;;;;;;;;;23.35;59.64;99543.06;2064745;28;20221;-67
2021/08/01 01:11:07;;;;;;;;;;;;;;;23.35;59.56;99548.56;2062300;28;19998;-67
2021/08/01 01:12:09;;;;;;;;;;;;;;;23.36;59.62;99546.66;2070774;28;19967;-67
2021/08/01 01:13:11;;;;;;;;;;;;;;;23.35;59.54;99543.06;2067505;28;19920;-67
2021/08/01 01:14:16;;;;;;;;;;;;;;;23.35;59.59;99545.81;2065930;28;19968;-67
2021/08/01 01:15:18;;;;;;;;;;;;;;;23.35;59.55;99548.56;2065852;28;19917;-67
2021/08/01 01:16:19;;;;;;;;;;;;;;;23.34;59.71;99549.59;2059705;28;20022;-67
2021/08/01 01:17:25;;;;;;;;;;;;;;;23.34;59.60;99544.09;2057997;28;20206;-67
2021/08/01 01:18:28;;;;;;;;;;;;;;;23.33;59.61;99546.00;2067618;28;19921;-67
2021/08/01 01:19:31;;;;;;;;;;;;;;;23.34;59.54;99546.84;2065979;28;20031;-67
2021/08/01 01:20:50;;;;;;;;;;;;;;;23.33;59.64;99540.50;2066934;28;19932;-67
2021/08/01 01:21:53;;;;;;;;;;;;;;;23.35;59.62;99540.31;2062506;28;19917;-67
2021/08/01 01:23:13;;;;;;;;;;;;;;;23.34;59.61;99544.09;2066676;28;19921;-67
2021/08/01 01:24:27;;;;;;;;;;;;;;;23.34;59.58;99541.34;2068119;28;19943;-66
2021/08/01 01:25:37;;;;;;;;;;;;;;;23.34;59.56;99541.34;2061255;28;19918;-67
2021/08/01 01:26:42;;;;;;;;;;;;;;;23.34;59.64;99541.34;2059001;28;19952;-67
2021/08/01 01:27:52;;;;;;;;;;;;;;;23.33;59.61;99536.91;2070888;28;19920;-66
2021/08/01 01:28:55;;;;;;;;;;;;;;;23.33;59.60;99534.16;2067717;28;19971;-66
2021/08/01 01:30:00;;;;;;;;;;;;;;;23.34;59.56;99544.09;2065096;28;19980;-66
2021/08/01 01:31:09;;;;;;;;;;;;;;;23.33;59.62;99542.41;2070150;28;19979;-66
2021/08/01 01:32:10;;;;;;;;;;;;;;;23.33;59.58;99534.16;2064708;28;19957;-66
2021/08/01 01:33:15;;;;;;;;;;;;;;;23.34;59.63;99538.59;2065060;28;19921;-66
2021/08/01 01:34:16;;;;;;;;;;;;;;;23.32;59.64;99537.91;2068492;28;21185;-66
2021/08/01 01:35:18;;;;;;;;;;;;;;;23.32;59.70;99537.91;2064991;28;19910;-66
2021/08/01 01:36:25;;;;;;;;;;;;;;;23.32;59.62;99532.41;2065804;28;19959;-66
2021/08/01 01:37:26;;;;;;;;;;;;;;;23.32;59.60;99538.81;2066027;28;19923;-66
2021/08/01 01:38:27;;;;;;;;;;;;;;;23.31;59.72;99530.72;2068305;28;19953;-66
2021/08/01 01:39:29;;;;;;;;;;;;;;;23.31;59.63;99530.72;2065035;28;19909;-67
2021/08/01 01:40:30;;;;;;;;;;;;;;;23.32;59.64;99526.94;2069658;28;19913;-67
2021/08/01 01:41:31;;;;;;;;;;;;;;;23.32;59.61;99532.41;2066957;28;19909;-66
2021/08/01 01:42:32;;;;;;;;;;;;;;;23.33;59.66;99528.66;2067415;28;20175;-66
2021/08/01 01:43:33;;;;;;;;;;;;;;;23.31;59.61;99526.06;2066217;28;20350;-66
2021/08/01 01:44:35;;;;;;;;;;;;;;;23.32;59.62;99527.81;2062037;28;19917;-67
2021/08/01 01:45:35;;;;;;;;;;;;;;;23.32;59.64;99521.41;2060050;28;20009;-67
2021/08/01 01:46:36;;;;;;;;;;;;;;;23.31;59.60;99523.31;2056362;28;19920;-67
2021/08/01 01:47:36;;;;;;;;;;;;;;;23.31;59.71;99525.22;2058379;28;19909;-67
2021/08/01 01:48:37;;;;;;;;;;;;;;;23.32;59.54;99526.94;2060655;28;19925;-67
2021/08/01 01:49:37;;;;;;;;;;;;;;;23.32;59.64;99521.41;2061963;28;19909;-67
2021/08/01 01:50:38;;;;;;;;;;;;;;;23.32;59.52;99527.81;2067029;28;19968;-67
2021/08/01 01:51:38;;;;;;;;;;;;;;;23.31;59.62;99531.56;2063182;28;19996;-67
2021/08/01 01:52:40;;;;;;;;;;;;;;;23.31;59.63;99519.72;2061600;28;19925;-67
2021/08/01 01:53:41;;;;;;;;;;;;;;;23.31;59.71;99519.72;2063296;28;19943;-66
2021/08/01 01:54:41;;;;;;;;;;;;;;;23.31;59.71;99527.97;2066014;28;19916;-67
2021/08/01 01:55:42;;;;;;;;;;;;;;;23.30;59.58;99529.03;2064615;28;19972;-67
2021/08/01 01:56:43;;;;;;;;;;;;;;;23.31;59.74;99520.56;2053708;28;20289;-67
2021/08/01 01:57:45;;;;;;;;;;;;;;;23.31;59.61;99523.31;2059388;28;20000;-67
2021/08/01 01:58:45;;;;;;;;;;;;;;;23.31;59.70;99526.06;2068709;28;19960;-67
2021/08/01 01:59:46;;;;;;;;;;;;;;;23.30;59.66;99521.63;2067371;28;21030;-67
2021/08/01 02:00:46;;;;;;;;;;;;;;;23.30;59.77;99523.53;2062634;28;20803;-67
2021/08/01 02:01:46;;;;;;;;;;;;;;;23.30;59.70;99520.78;2067211;28;19924;-67
2021/08/01 02:02:47;;;;;;;;;;;;;;;23.31;59.62;99525.22;2061838;28;20376;-67
2021/08/01 02:03:47;;;;;;;;;;;;;;;23.31;59.62;99525.22;2059373;28;19913;-67
2021/08/01 02:04:53;;;;;;;;;;;;;;;23.29;59.63;99524.56;2067452;28;19992;-66
2021/08/01 02:05:54;;;;;;;;;;;;;;;23.30;59.64;99526.28;2064846;28;19909;-66
2021/08/01 02:06:54;;;;;;;;;;;;;;;23.30;59.72;99529.88;2067288;28;19956;-67
2021/08/01 02:07:54;;;;;;;;;;;;;;;23.29;59.72;99521.81;2069202;28;19971;-66
2021/08/01 02:09:18;;;;;;;;;;;;;;;23.29;59.69;99530.06;2063624;28;19946;-66
2021/08/01 02:10:41;;;;;;;;;;;;;;;23.28;59.64;99526.47;2067062;28;19999;-66
2021/08/01 02:11:42;;;;;;;;;;;;;;;23.29;59.63;99524.56;2063714;28;20466;-66
2021/08/01 02:12:51;;;;;;;;;;;;;;;23.29;59.71;99527.31;2061534;28;20243;-66
2021/08/01 02:14:03;;;;;;;;;;;;;;;23.29;59.58;99519.91;2058841;28;19933;-66
2021/08/01 02:15:05;;;;;;;;;;;;;;;23.30;59.72;99518.03;2064431;28;19917;-66
2021/08/01 02:16:07;;;;;;;;;;;;;;;23.29;59.72;99519.06;2070509;28;19916;-66
2021/08/01 02:17:10;;;;;;;;;;;;;;;23.28;59.63;99509.97;2067506;28;19917;-66
2021/08/01 02:18:16;;;;;;;;;;;;;;;23.27;59.79;99511.03;2067336;28;20396;-66
2021/08/01 02:19:18;;;;;;;;;;;;;;;23.28;59.75;99514.63;2063310;28;19909;-66
2021/08/01 02:20:21;;;;;;;;;;;;;;;23.27;59.86;99513.78;2058613;28;19929;-66
2021/08/01 02:21:22;;;;;;;;;;;;;;;23.29;59.63;99516.31;2066686;28;20047;-66
2021/08/01 02:22:23;;;;;;;;;;;;;;;23.28;59.63;99509.13;2067346;28;19917;-66
2021/08/01 02:23:25;;;;;;;;;;;;;;;23.28;59.71;99509.13;2065120;28;19921;-67
2021/08/01 02:24:25;;;;;;;;;;;;;;;23.29;59.79;99521.81;2062140;28;19916;-67
2021/08/01 02:25:29;;;;;;;;;;;;;;;23.29;59.64;99505.31;2068370;28;20002;-66
2021/08/01 02:26:30;;;;;;;;;;;;;;;23.29;59.63;99505.31;2067828;28;19925;-67
2021/08/01 02:27:31;;;;;;;;;;;;;;;23.29;59.63;99513.56;2064123;28;19921;-67
2021/08/01 02:28:33;;;;;;;;;;;;;;;23.27;59.72;99511.03;2066520;28;19917;-67
2021/08/01 02:29:33;;;;;;;;;;;;;;;23.28;59.74;99517.38;2066231;28;19917;-67
2021/08/01 02:30:35;;;;;;;;;;;;;;;23.27;59.77;99511.03;2068338;28;19923;-67
2021/08/01 02:31:36;;;;;;;;;;;;;;;23.26;59.75;99511.19;2057639;28;19917;-67
2021/08/01 02:32:38;;;;;;;;;;;;;;;23.27;59.65;99510.16;2060372;28;19957;-67
2021/08/01 02:33:38;;;;;;;;;;;;;;;23.27;59.71;99512.91;2065721;28;20051;-66
2021/08/01 02:34:39;;;;;;;;;;;;;;;23.26;59.79;99501.06;2067472;28;19917;-67
2021/08/01 02:35:39;;;;;;;;;;;;;;;23.27;59.73;99510.16;2065949;28;19931;-67
2021/08/01 02:36:40;;;;;;;;;;;;;;;23.27;59.73;99501.91;2067553;28;20339;-67
2021/08/01 02:37:41;;;;;;;;;;;;;;;23.27;59.82;99508.28;2063250;28;20786;-67
2021/08/01 02:38:42;;;;;;;;;;;;;;;23.27;59.60;99496.41;2063104;28;20246;-67
2021/08/01 02:39:43;;;;;;;;;;;;;;;23.27;59.72;99504.66;2065111;28;19924;-67
2021/08/01 02:40:43;;;;;;;;;;;;;;;23.26;59.86;99501.06;2066328;28;20092;-67
2021/08/01 02:41:45;;;;;;;;;;;;;;;23.27;59.84;99496.41;2065214;28;19943;-67
2021/08/01 02:42:47;;;;;;;;;;;;;;;23.27;59.81;99490.91;2062555;28;19931;-66
2021/08/01 02:43:49;;;;;;;;;;;;;;;23.27;59.75;99496.41;2062448;28;19921;-66
2021/08/01 02:44:50;;;;;;;;;;;;;;;23.27;59.84;99496.41;2065465;28;19947;-67
2021/08/01 02:45:52;;;;;;;;;;;;;;;23.26;59.79;99489.22;2066604;28;20351;-66
2021/08/01 02:46:53;;;;;;;;;;;;;;;23.25;59.84;99488.38;2066282;28;20407;-66
2021/08/01 02:47:54;;;;;;;;;;;;;;;23.26;59.74;99497.47;2065961;28;20284;-66
2021/08/01 02:48:56;;;;;;;;;;;;;;;23.25;59.76;99492.97;2063196;28;19917;-68
2021/08/01 02:49:57;;;;;;;;;;;;;;;23.25;59.73;99492.97;2065554;28;19921;-67
2021/08/01 02:51:02;;;;;;;;;;;;;;;23.25;59.83;99492.97;2060936;28;20416;-67
2021/08/01 02:52:04;;;;;;;;;;;;;;;23.26;59.73;99500.22;2061652;28;19917;-67
2021/08/01 02:53:08;;;;;;;;;;;;;;;23.25;59.65;99492.97;2062974;28;20004;-67
2021/08/01 02:54:09;;;;;;;;;;;;;;;23.26;59.71;99497.47;2062792;28;19925;-67
2021/08/01 02:55:11;;;;;;;;;;;;;;;23.26;59.70;99503.81;2061788;28;19952;-67
2021/08/01 02:56:15;;;;;;;;;;;;;;;23.27;59.64;99490.91;2058163;28;20392;-66
2021/08/01 02:57:16;;;;;;;;;;;;;;;23.26;59.66;99500.22;2059615;28;19917;-66
2021/08/01 02:58:17;;;;;;;;;;;;;;;23.26;59.76;99501.06;2059338;28;19971;-66
2021/08/01 02:59:18;;;;;;;;;;;;;;;23.24;59.68;99494.88;2061451;28;19970;-66
2021/08/01 03:00:19;;;;;;;;;;;;;;;23.24;59.77;99502.28;2056275;28;20790;-66
2021/08/01 03:01:19;;;;;;;;;;;;;;;23.24;59.93;99502.28;2057160;28;19924;-67
2021/08/01 03:02:20;;;;;;;;;;;;;;;23.23;59.89;99501.44;2061839;28;19924;-66
2021/08/01 03:03:21;;;;;;;;;;;;;;;23.23;59.79;99500.59;2061584;28;19968;-66
2021/08/01 03:04:24;;;;;;;;;;;;;;;23.23;59.89;99501.44;2066298;28;20431;-66
2021/08/01 03:05:24;;;;;;;;;;;;;;;23.22;59.80;99496.13;2065333;28;19917;-66
2021/08/01 03:06:32;;;;;;;;;;;;;;;23.22;59.81;99498.88;2063195;28;20235;-66
2021/08/01 03:07:32;;;;;;;;;;;;;;;23.22;59.76;99504.38;2065413;28;19967;-66
2021/08/01 03:08:33;;;;;;;;;;;;;;;23.23;59.75;99501.44;2061166;28;19917;-66
2021/08/01 03:09:33;;;;;;;;;;;;;;;23.22;59.72;99501.63;2066681;28;19915;-65
2021/08/01 03:10:34;;;;;;;;;;;;;;;23.23;59.86;99497.84;2063931;28;20701;-65
2021/08/01 03:11:34;;;;;;;;;;;;;;;23.22;59.84;99507.13;2067676;28;20327;-65
2021/08/01 03:12:41;;;;;;;;;;;;;;;23.23;59.88;99508.84;2067653;28;19921;-66
2021/08/01 03:13:41;;;;;;;;;;;;;;;23.21;59.94;99509.03;2063123;28;19928;-66
2021/08/01 03:14:41;;;;;;;;;;;;;;;23.21;59.87;99502.69;2067742;28;20461;-66
2021/08/01 03:15:43;;;;;;;;;;;;;;;23.20;59.80;99500.97;2066949;28;20380;-66
2021/08/01 03:16:43;;;;;;;;;;;;;;;23.20;59.89;99501.84;2066748;28;20019;-66
2021/08/01 03:17:46;;;;;;;;;;;;;;;23.20;59.96;99500.97;2064015;28;20526;-66
2021/08/01 03:18:46;;;;;;;;;;;;;;;23.19;59.88;99497.34;2066110;28;20032;-66
2021/08/01 03:19:47;;;;;;;;;;;;;;;23.21;59.87;99505.44;2064470;28;19913;-66
2021/08/01 03:20:47;;;;;;;;;;;;;;;23.21;59.86;99502.69;2064249;28;20032;-66
2021/08/01 03:21:47;;;;;;;;;;;;;;;23.21;59.93;99505.44;2065886;28;19928;-66
2021/08/01 03:22:48;;;;;;;;;;;;;;;23.20;59.96;99500.97;2065287;28;19977;-66
2021/08/01 03:23:48;;;;;;;;;;;;;;;23.21;59.92;99502.69;2063464;28;19917;-67
2021/08/01 03:24:48;;;;;;;;;;;;;;;23.21;59.94;99499.94;2066780;28;19997;-66
2021/08/01 03:25:48;;;;;;;;;;;;;;;23.20;59.81;99501.84;2067153;28;19963;-67
2021/08/01 03:26:49;;;;;;;;;;;;;;;23.20;59.95;99500.97;2067500;28;20316;-67
2021/08/01 03:27:49;;;;;;;;;;;;;;;23.20;59.88;99498.22;2063662;28;20504;-67
2021/08/01 03:28:49;;;;;;;;;;;;;;;23.20;59.97;99503.72;2065701;28;20475;-67
2021/08/01 03:29:50;;;;;;;;;;;;;;;23.20;59.88;99495.47;2059541;28;20044;-66
2021/08/01 03:30:50;;;;;;;;;;;;;;;23.19;59.96;99496.50;2062476;28;19921;-67
2021/08/01 03:31:50;;;;;;;;;;;;;;;23.20;59.96;99500.97;2067099;28;20473;-67
2021/08/01 03:32:51;;;;;;;;;;;;;;;23.20;59.89;99500.97;2065338;28;19968;-67
2021/08/01 03:33:51;;;;;;;;;;;;;;;23.19;59.95;99502.00;2067779;28;19917;-67
2021/08/01 03:34:51;;;;;;;;;;;;;;;23.20;60.09;99500.97;2067689;28;19956;-67
2021/08/01 03:35:52;;;;;;;;;;;;;;;23.18;60.04;99503.91;2066663;28;19917;-67
2021/08/01 03:36:52;;;;;;;;;;;;;;;23.18;60.04;99497.56;2067954;28;19944;-67
2021/08/01 03:37:52;;;;;;;;;;;;;;;23.18;59.90;99497.56;2065356;28;20291;-67
2021/08/01 03:38:53;;;;;;;;;;;;;;;23.19;59.89;99504.75;2067426;28;19917;-67
2021/08/01 03:39:59;;;;;;;;;;;;;;;23.19;59.94;99504.75;2067166;28;19952;-67
2021/08/01 03:40:59;;;;;;;;;;;;;;;23.18;60.02;99497.56;2064617;28;20443;-67
2021/08/01 03:42:03;;;;;;;;;;;;;;;23.19;59.94;99499.25;2065719;28;20295;-67
2021/08/01 03:43:03;;;;;;;;;;;;;;;23.19;59.95;99502.84;2066061;28;19913;-70
2021/08/01 03:44:03;;;;;;;;;;;;;;;23.19;59.95;99502.00;2062938;28;19928;-67
2021/08/01 03:45:04;;;;;;;;;;;;;;;23.20;59.96;99507.34;2062796;28;19913;-67
2021/08/01 03:46:04;;;;;;;;;;;;;;;23.22;59.86;99507.13;2068081;28;19944;-67
2021/08/01 03:47:04;;;;;;;;;;;;;;;23.21;60.04;99503.53;2069091;28;20456;-67
2021/08/01 03:48:05;;;;;;;;;;;;;;;23.21;60.31;99508.19;2070782;28;21566;-66
2021/08/01 03:49:05;;;;;;;;;;;;;;;23.22;60.28;99504.38;2067035;28;20578;-66
2021/08/01 03:50:06;;;;;;;;;;;;;;;23.26;60.18;99505.72;2064962;28;19920;-67
2021/08/01 03:51:06;;;;;;;;;;;;;;;23.25;60.27;99503.97;2062257;28;19944;-66
2021/08/01 03:52:07;;;;;;;;;;;;;;;23.24;60.31;99502.28;2057731;28;19956;-66
2021/08/01 03:53:07;;;;;;;;;;;;;;;23.24;60.28;99507.78;2058138;28;19917;-67
2021/08/01 03:54:07;;;;;;;;;;;;;;;23.25;60.27;99503.97;2065642;28;20379;-66
2021/08/01 03:55:08;;;;;;;;;;;;;;;23.25;60.30;99503.97;2062192;28;19921;-66
2021/08/01 03:56:08;;;;;;;;;;;;;;;23.25;60.44;99514.97;2066323;28;19924;-65
2021/08/01 03:57:10;;;;;;;;;;;;;;;23.24;60.23;99505.88;2068691;28;20658;-66
2021/08/01 03:58:11;;;;;;;;;;;;;;;23.25;60.31;99509.47;2066975;28;20694;-66
2021/08/01 03:59:11;;;;;;;;;;;;;;;23.26;60.28;99509.31;2066026;28;20359;-66
2021/08/01 04:00:12;;;;;;;;;;;;;;;23.27;60.23;99512.91;2068748;28;20297;-67
2021/08/01 04:01:13;;;;;;;;;;;;;;;23.28;60.25;99511.88;2067669;28;19921;-66
2021/08/01 04:02:13;;;;;;;;;;;;;;;23.26;60.29;99511.19;2067478;28;19991;-66
2021/08/01 04:03:14;;;;;;;;;;;;;;;23.29;60.28;99510.81;2063432;28;19917;-66
2021/08/01 04:04:14;;;;;;;;;;;;;;;23.30;60.18;99512.53;2066341;28;20013;-67
2021/08/01 04:05:14;;;;;;;;;;;;;;;23.28;60.24;99515.47;2066386;28;20438;-67
2021/08/01 04:06:15;;;;;;;;;;;;;;;23.30;60.20;99512.53;2063140;28;19928;-67
2021/08/01 04:07:15;;;;;;;;;;;;;;;23.30;60.33;99523.53;2071605;28;19916;-67
2021/08/01 04:08:15;;;;;;;;;;;;;;;23.28;60.41;99517.38;2066131;28;20419;-66
2021/08/01 04:09:16;;;;;;;;;;;;;;;23.30;60.32;99518.03;2067739;28;20294;-65
2021/08/01 04:10:16;;;;;;;;;;;;;;;23.29;60.36;99521.81;2066978;28;20413;-66
2021/08/01 04:11:16;;;;;;;;;;;;;;;23.31;60.32;99522.47;2065048;28;20067;-66
2021/08/01 04:12:17;;;;;;;;;;;;;;;23.30;60.29;99524.38;2058240;28;20340;-67
2021/08/01 04:13:17;;;;;;;;;;;;;;;23.32;60.34;99526.94;2061113;28;19929;-67
2021/08/01 04:14:17;;;;;;;;;;;;;;;23.33;60.22;99528.66;2070249;28;20352;-66
2021/08/01 04:15:18;;;;;;;;;;;;;;;23.30;60.30;99529.88;2065730;28;19916;-67
2021/08/01 04:16:18;;;;;;;;;;;;;;;23.31;60.25;99528.81;2069902;28;19916;-68
2021/08/01 04:17:19;;;;;;;;;;;;;;;23.31;60.29;99525.22;2069410;28;19999;-67
2021/08/01 04:18:19;;;;;;;;;;;;;;;23.33;60.31;99525.91;2064553;28;20436;-66
2021/08/01 04:19:20;;;;;;;;;;;;;;;23.33;60.22;99528.66;2070145;28;20261;-66
2021/08/01 04:20:20;;;;;;;;;;;;;;;23.31;60.30;99526.06;2067581;28;19979;-66
2021/08/01 04:21:21;;;;;;;;;;;;;;;23.30;60.39;99529.03;2067540;28;19921;-66
2021/08/01 04:22:21;;;;;;;;;;;;;;;23.29;60.35;99533.66;2066442;28;20044;-66
2021/08/01 04:23:21;;;;;;;;;;;;;;;23.31;60.36;99539.81;2064819;28;19939;-66
2021/08/01 04:24:21;;;;;;;;;;;;;;;23.31;60.41;99537.06;2062338;28;20305;-66
2021/08/01 04:25:22;;;;;;;;;;;;;;;23.31;60.34;99536.22;2061989;28;20827;-66
2021/08/01 04:26:22;;;;;;;;;;;;;;;23.31;60.31;99541.72;2067502;28;19967;-66
2021/08/01 04:27:22;;;;;;;;;;;;;;;23.34;60.15;99538.59;2064978;28;19917;-66
2021/08/01 04:28:23;;;;;;;;;;;;;;;23.34;60.22;99535.84;2066582;28;19917;-66
2021/08/01 04:29:23;;;;;;;;;;;;;;;23.34;60.22;99546.84;2065803;28;19920;-66
2021/08/01 04:30:23;;;;;;;;;;;;;;;23.32;60.33;99544.31;2065280;28;19947;-66
2021/08/01 04:31:24;;;;;;;;;;;;;;;23.33;60.14;99543.25;2070917;28;20383;-66
2021/08/01 04:32:24;;;;;;;;;;;;;;;23.33;60.28;99539.66;2060681;28;19991;-67
2021/08/01 04:33:24;;;;;;;;;;;;;;;23.32;60.18;99544.31;2062150;28;19917;-67
2021/08/01 04:34:25;;;;;;;;;;;;;;;23.35;60.31;99547.69;2050762;28;20618;-67
2021/08/01 04:35:25;;;;;;;;;;;;;;;23.32;60.25;99544.31;2057977;28;19967;-66
2021/08/01 04:36:25;;;;;;;;;;;;;;;23.34;60.07;99538.59;2069776;28;19917;-67
2021/08/01 04:37:26;;;;;;;;;;;;;;;23.35;60.14;99548.56;2061265;28;19955;-67
2021/08/01 04:38:27;;;;;;;;;;;;;;;23.34;60.14;99549.59;2063947;28;19927;-67
2021/08/01 04:39:27;;;;;;;;;;;;;;;23.32;60.32;99544.31;2072193;28;19924;-67
2021/08/01 04:40:28;;;;;;;;;;;;;;;23.34;60.23;99546.84;2066686;28;19917;-67
2021/08/01 04:41:28;;;;;;;;;;;;;;;23.34;60.26;99549.59;2066299;28;19917;-66
2021/08/01 04:42:28;;;;;;;;;;;;;;;23.31;60.26;99548.06;2066765;28;19909;-67
2021/08/01 04:43:28;;;;;;;;;;;;;;;23.33;60.23;99561.66;2068330;28;20302;-66
2021/08/01 04:44:29;;;;;;;;;;;;;;;23.35;60.15;99554.06;2064118;28;19924;-66
2021/08/01 04:45:29;;;;;;;;;;;;;;;23.33;60.16;99567.16;2064739;28;19925;-66
2021/08/01 04:46:30;;;;;;;;;;;;;;;23.33;60.33;99558.91;2065797;28;20196;-66
2021/08/01 04:47:31;;;;;;;;;;;;;;;23.33;60.27;99561.66;2065135;28;20154;-67
2021/08/01 04:48:31;;;;;;;;;;;;;;;23.33;60.22;99561.66;2067340;28;20310;-66
2021/08/01 04:49:31;;;;;;;;;;;;;;;23.32;60.18;99560.81;2063774;28;19925;-66
2021/08/01 04:50:32;;;;;;;;;;;;;;;23.34;60.24;99568.84;2061855;28;20206;-67
2021/08/01 04:51:32;;;;;;;;;;;;;;;23.34;60.15;99571.59;2054917;28;20167;-68
2021/08/01 04:52:32;;;;;;;;;;;;;;;23.33;60.11;99567.16;2054831;28;19965;-67
2021/08/01 04:53:33;;;;;;;;;;;;;;;23.31;60.29;99575.56;2064427;28;19921;-68
2021/08/01 04:54:36;;;;;;;;;;;;;;;23.30;60.18;99567.53;2063326;28;20019;-67
2021/08/01 04:55:37;;;;;;;;;;;;;;;23.30;60.11;99576.63;2064930;28;19996;-67
2021/08/01 04:56:37;;;;;;;;;;;;;;;23.30;60.17;99575.78;2065858;28;19917;-67
2021/08/01 04:57:38;;;;;;;;;;;;;;;23.29;60.26;99574.91;2065008;28;20055;-67
2021/08/01 04:58:38;;;;;;;;;;;;;;;23.29;60.12;99577.66;2065172;28;19960;-67
2021/08/01 04:59:38;;;;;;;;;;;;;;;23.30;60.23;99578.53;2063974;28;19922;-67
2021/08/01 05:00:39;;;;;;;;;;;;;;;23.32;60.07;99579.16;2065407;28;19981;-67
2021/08/01 05:01:39;;;;;;;;;;;;;;;23.36;60.01;99583.25;2066438;28;20388;-67
2021/08/01 05:02:39;;;;;;;;;;;;;;;23.37;59.97;99589.59;2065866;28;19964;-67
2021/08/01 05:03:40;;;;;;;;;;;;;;;23.36;59.94;99588.75;2073381;28;20348;-66
2021/08/01 05:04:40;;;;;;;;;;;;;;;23.35;60.07;99587.06;2067804;28;19917;-65
2021/08/01 05:05:40;;;;;;;;;;;;;;;23.36;59.93;99587.91;2068508;28;20384;-66
2021/08/01 05:06:41;;;;;;;;;;;;;;;23.35;60.00;99592.56;2067830;28;20342;-66
2021/08/01 05:07:41;;;;;;;;;;;;;;;23.36;60.03;99593.41;2067346;28;20802;-65
2021/08/01 05:08:41;;;;;;;;;;;;;;;23.37;59.98;99590.47;2066814;28;20756;-66
2021/08/01 05:09:41;;;;;;;;;;;;;;;23.37;59.98;99597.84;2064489;28;19921;-66
2021/08/01 05:10:42;;;;;;;;;;;;;;;23.39;60.04;99593.03;2056981;28;19921;-67
2021/08/01 05:11:42;;;;;;;;;;;;;;;23.37;60.05;99595.09;2055267;28;20395;-66
2021/08/01 05:12:42;;;;;;;;;;;;;;;23.35;59.98;99595.31;2067760;28;19921;-65
2021/08/01 05:13:43;;;;;;;;;;;;;;;23.38;60.09;99600.44;2069515;28;19951;-67
2021/08/01 05:14:45;;;;;;;;;;;;;;;23.38;60.10;99602.34;2073568;28;20006;-66
2021/08/01 05:15:45;;;;;;;;;;;;;;;23.37;60.12;99595.97;2065955;28;20380;-67
2021/08/01 05:16:46;;;;;;;;;;;;;;;23.36;60.20;99593.41;2067754;28;19992;-66
2021/08/01 05:17:46;;;;;;;;;;;;;;;23.37;60.09;99607.00;2067390;28;19958;-65
2021/08/01 05:18:46;;;;;;;;;;;;;;;23.39;60.03;99606.78;2066281;28;19917;-66
2021/08/01 05:19:47;;;;;;;;;;;;;;;23.36;60.18;99605.25;2055582;28;20023;-66
2021/08/01 05:20:47;;;;;;;;;;;;;;;23.35;60.26;99602.69;2057279;28;19975;-66
2021/08/01 05:21:47;;;;;;;;;;;;;;;23.35;60.21;99610.94;2064276;28;20736;-66